KLHB/LHB METAR and TAF weather

Enter ICAO airport designator
Station Type Date Time Source
KLHB METAR 2019/08/24 07:15 UTC NOAA

KLHB 240715Z AUTO 14003KT 10SM SCT018 26/23 A2994 RMK AO2 T02570232


Station Type Date Time Source
KLHB Decoded METAR 2019/08/24 07:15 UTC NOAA

Station name not available
Aug 24, 2019 - 03:15 AM EDT / 2019.08.24 0715 UTC
Wind: from the SE (140 degrees) at 3 MPH (3 KT):0
Visibility: 10 mile(s):0
Sky conditions: partly cloudy
Temperature: 78.3 F (25.7 C)
Dew Point: 73.8 F (23.2 C)
Relative Humidity: 86%
Pressure (altimeter): 29.94 in. Hg (1013 hPa)
ob: KLHB 240715Z AUTO 14003KT 10SM SCT018 26/23 A2994 RMK AO2 T02570232
cycle: 7

Station Type Date Time Source
KLHB TAF UTC NOAA

Error!

Example: see airport list